createdAt,value
2022-09-03T00:01:42.754Z,2.00
2022-09-03T00:05:05.423Z,2.00
2022-09-03T00:08:28.547Z,1.90
2022-09-03T00:11:58.853Z,2.20
2022-09-03T00:14:52.392Z,2.50
2022-09-03T00:17:50.142Z,2.30
2022-09-03T00:20:42.840Z,2.00
2022-09-03T00:23:31.395Z,2.08
2022-09-03T00:26:27.291Z,2.00
2022-09-03T00:29:20.205Z,2.10
2022-09-03T00:32:14.868Z,2.05
2022-09-03T00:35:04.712Z,1.87
2022-09-03T00:37:52.490Z,2.00
2022-09-03T00:40:54.497Z,2.37
2022-09-03T00:43:55.003Z,2.00
2022-09-03T00:47:11.332Z,1.97
2022-09-03T00:50:18.019Z,1.70
2022-09-03T00:53:40.818Z,2.23
2022-09-03T00:56:31.292Z,1.87
2022-09-03T00:59:25.318Z,1.80
2022-09-03T01:02:34.192Z,1.80
2022-09-03T01:05:38.394Z,1.90
2022-09-03T01:08:35.872Z,2.03
2022-09-03T01:11:27.556Z,1.87
2022-09-03T01:14:57.660Z,1.90
2022-09-03T01:17:52.296Z,1.90
2022-09-03T01:20:47.127Z,1.57
2022-09-03T01:23:55.723Z,1.83
2022-09-03T01:26:59.696Z,1.90
2022-09-03T01:29:55.608Z,1.63
2022-09-03T01:33:14.236Z,1.80
2022-09-03T01:36:17.120Z,1.80
2022-09-03T01:39:06.492Z,1.83
2022-09-03T01:42:20.255Z,1.57
2022-09-03T01:45:21.608Z,1.60
2022-09-03T01:48:22.281Z,1.70
2022-09-03T01:51:21.004Z,1.80
2022-09-03T01:54:26.618Z,1.80
2022-09-03T01:57:37.087Z,1.70
2022-09-03T02:00:25.135Z,1.60
2022-09-03T02:03:12.634Z,1.60
2022-09-03T02:05:57.972Z,1.50
2022-09-03T02:08:43.422Z,1.30
2022-09-03T02:11:28.969Z,1.50
2022-09-03T02:14:14.992Z,1.60
2022-09-03T02:17:02.179Z,1.40
2022-09-03T02:19:48.019Z,1.80
2022-09-03T02:22:34.630Z,1.47
2022-09-03T02:25:21.195Z,1.37
2022-09-03T02:28:17.150Z,1.47
2022-09-03T02:31:03.962Z,1.30
2022-09-03T02:33:50.958Z,1.40
2022-09-03T02:36:42.500Z,1.37
2022-09-03T02:39:29.010Z,1.50
2022-09-03T02:42:15.936Z,1.60
2022-09-03T02:45:14.192Z,1.40
2022-09-03T02:48:00.637Z,1.43
2022-09-03T02:50:46.091Z,1.60
2022-09-03T02:53:31.507Z,1.50
2022-09-03T02:56:16.629Z,1.40
2022-09-03T02:59:03.752Z,1.57
2022-09-03T03:01:49.957Z,1.30
2022-09-03T03:04:35.105Z,1.50
2022-09-03T03:07:20.550Z,1.40
2022-09-03T03:10:06.087Z,1.40
2022-09-03T03:12:51.430Z,1.50
2022-09-03T03:15:36.725Z,1.30
2022-09-03T03:18:21.890Z,1.30
2022-09-03T03:21:10.326Z,1.30
2022-09-03T03:23:55.579Z,1.67
2022-09-03T03:26:41.262Z,1.27
2022-09-03T03:29:26.641Z,1.37
2022-09-03T03:32:11.928Z,1.13
2022-09-03T03:34:57.337Z,1.53
2022-09-03T03:37:42.535Z,1.10
2022-09-03T03:40:28.028Z,1.40
2022-09-03T03:43:13.499Z,1.07
2022-09-03T03:45:59.054Z,1.30
2022-09-03T03:48:47.492Z,1.20
2022-09-03T03:51:33.927Z,1.17
2022-09-03T03:54:19.611Z,1.20
2022-09-03T03:57:05.120Z,1.20
2022-09-03T03:59:50.690Z,1.20
2022-09-03T04:02:39.048Z,1.47
2022-09-03T04:05:24.512Z,1.20
2022-09-03T04:08:09.887Z,1.47
2022-09-03T04:11:00.381Z,1.10
2022-09-03T04:13:47.465Z,1.20
2022-09-03T04:16:33.183Z,1.03
2022-09-03T04:19:19.397Z,1.40
2022-09-03T04:22:04.979Z,1.33
2022-09-03T04:24:50.182Z,1.03
2022-09-03T04:27:35.571Z,1.30
2022-09-03T04:30:21.297Z,1.20
2022-09-03T04:33:06.913Z,1.23
2022-09-03T04:36:05.555Z,1.20
2022-09-03T04:38:54.494Z,1.00
2022-09-03T04:41:39.852Z,1.30
2022-09-03T04:44:25.071Z,1.30
2022-09-03T04:47:10.432Z,1.13
2022-09-03T04:49:55.880Z,1.10
2022-09-03T04:52:41.375Z,1.40
2022-09-03T04:55:27.144Z,1.20
2022-09-03T04:58:12.556Z,1.27
2022-09-03T05:00:58.113Z,1.40
2022-09-03T05:03:44.315Z,1.30
2022-09-03T05:06:31.583Z,1.10
2022-09-03T05:09:16.854Z,1.27
2022-09-03T05:12:02.413Z,1.40
2022-09-03T05:14:49.281Z,0.90
2022-09-03T05:17:37.660Z,1.20
2022-09-03T05:20:23.603Z,1.83
2022-09-03T05:23:09.118Z,1.67
2022-09-03T05:25:59.839Z,1.50
2022-09-03T05:28:46.360Z,1.40
2022-09-03T05:31:32.113Z,1.47
2022-09-03T05:34:18.387Z,1.47
2022-09-03T05:37:04.662Z,1.30
2022-09-03T05:39:50.327Z,1.70
2022-09-03T05:42:38.003Z,1.50
2022-09-03T05:45:23.395Z,1.53
2022-09-03T05:48:08.632Z,1.20
2022-09-03T05:51:02.048Z,1.63
2022-09-03T05:53:49.489Z,1.17
2022-09-03T05:56:36.299Z,1.30
2022-09-03T05:59:21.536Z,1.23
2022-09-03T06:02:06.807Z,4.63
2022-09-03T06:04:52.084Z,2.77
2022-09-03T06:07:37.774Z,2.50
2022-09-03T06:10:26.650Z,3.00
2022-09-03T06:13:14.993Z,2.23
2022-09-03T06:16:02.202Z,2.83
2022-09-03T06:18:47.752Z,2.70
2022-09-03T06:21:33.363Z,2.63
2022-09-03T06:24:26.504Z,2.33
2022-09-03T06:27:13.522Z,2.03
2022-09-03T06:29:59.956Z,2.47
2022-09-03T06:32:48.445Z,2.50
2022-09-03T06:35:42.751Z,2.50
2022-09-03T06:38:32.118Z,2.50
2022-09-03T06:41:21.498Z,2.40
2022-09-03T06:44:13.286Z,2.70
2022-09-03T06:47:01.633Z,1.97
2022-09-03T06:49:46.922Z,2.53
2022-09-03T06:52:32.162Z,2.73
2022-09-03T06:55:17.324Z,2.60
2022-09-03T06:58:02.891Z,2.10
2022-09-03T07:00:49.784Z,2.90
2022-09-03T07:03:36.650Z,2.53
2022-09-03T07:06:24.192Z,2.80
2022-09-03T07:09:11.410Z,3.00
2022-09-03T07:11:56.675Z,2.70
2022-09-03T07:14:42.108Z,3.00
2022-09-03T07:17:28.371Z,3.17
2022-09-03T07:20:13.771Z,2.77
2022-09-03T07:22:58.966Z,2.90
2022-09-03T07:25:44.198Z,2.60
2022-09-03T07:28:30.379Z,2.77
2022-09-03T07:31:25.399Z,2.60
2022-09-03T07:34:12.750Z,2.40
2022-09-03T07:36:58.081Z,2.87
2022-09-03T07:39:43.725Z,2.90
2022-09-03T07:42:29.092Z,2.67
2022-09-03T07:45:14.491Z,2.03
2022-09-03T07:48:00.450Z,2.23
2022-09-03T07:50:47.725Z,2.43
2022-09-03T07:53:34.298Z,2.93
2022-09-03T07:56:20.202Z,3.10
2022-09-03T07:59:05.919Z,2.80
2022-09-03T08:01:52.212Z,2.80
2022-09-03T08:04:38.607Z,2.60
2022-09-03T08:07:23.828Z,3.07
2022-09-03T08:10:09.444Z,2.50
2022-09-03T08:12:55.035Z,1.90
2022-09-03T08:15:42.965Z,1.80
2022-09-03T08:18:32.034Z,2.27
2022-09-03T08:21:20.214Z,2.27
2022-09-03T08:24:06.616Z,2.03
2022-09-03T08:26:52.733Z,2.30
2022-09-03T08:29:38.522Z,2.20
2022-09-03T08:32:24.290Z,3.00
2022-09-03T08:35:09.663Z,9.73
2022-09-03T08:37:56.765Z,6.30
2022-09-03T08:40:45.762Z,6.50
2022-09-03T08:43:36.954Z,5.93
2022-09-03T08:46:32.572Z,4.10
2022-09-03T08:49:44.361Z,4.90
2022-09-03T08:52:32.618Z,4.40
2022-09-03T08:55:29.684Z,4.67
2022-09-03T08:58:29.914Z,4.50
2022-09-03T09:01:31.905Z,4.07
2022-09-03T09:04:35.806Z,4.50
2022-09-03T09:07:49.710Z,4.93
2022-09-03T09:10:46.217Z,4.53
2022-09-03T09:13:44.046Z,4.03
2022-09-03T09:16:55.500Z,3.60
2022-09-03T09:20:07.088Z,3.80
2022-09-03T09:23:02.879Z,4.07
2022-09-03T09:25:50.507Z,3.53
2022-09-03T09:28:38.088Z,2.97
2022-09-03T09:31:23.835Z,4.00
2022-09-03T09:34:09.849Z,3.93
2022-09-03T09:36:56.355Z,3.17
2022-09-03T09:39:59.124Z,3.10
2022-09-03T09:42:44.875Z,3.03
2022-09-03T09:45:32.563Z,3.57
2022-09-03T09:48:31.643Z,3.50
2022-09-03T09:51:22.784Z,2.87
2022-09-03T09:54:20.089Z,2.93
2022-09-03T09:57:07.421Z,3.07
2022-09-03T10:00:22.734Z,3.63
2022-09-03T10:03:13.810Z,2.93
2022-09-03T10:06:26.157Z,3.20
2022-09-03T10:09:18.718Z,3.60
2022-09-03T10:12:19.764Z,2.63
2022-09-03T10:15:24.705Z,3.30
2022-09-03T10:18:17.666Z,2.63
2022-09-03T10:21:15.659Z,2.92
2022-09-03T10:24:14.046Z,2.50
2022-09-03T10:26:59.524Z,2.80
2022-09-03T10:29:45.779Z,2.87
2022-09-03T10:32:49.377Z,2.40
2022-09-03T10:35:46.286Z,2.20
2022-09-03T10:38:37.977Z,2.20
2022-09-03T10:41:55.930Z,1.80
2022-09-03T10:45:09.883Z,1.87
2022-09-03T10:48:07.258Z,2.03
2022-09-03T10:51:04.687Z,1.60
2022-09-03T10:54:12.764Z,1.77
2022-09-03T10:57:10.185Z,2.13
2022-09-03T11:00:10.396Z,1.70
2022-09-03T11:03:31.237Z,1.90
2022-09-03T11:06:28.616Z,1.90
2022-09-03T11:09:19.877Z,1.90
2022-09-03T11:12:11.612Z,1.97
2022-09-03T11:15:03.818Z,1.70
2022-09-03T11:17:56.911Z,1.97
2022-09-03T11:20:43.127Z,1.83
2022-09-03T11:23:31.602Z,1.80
2022-09-03T11:26:19.726Z,1.60
2022-09-03T11:29:24.985Z,1.80
2022-09-03T11:32:18.163Z,1.63
2022-09-03T11:35:14.928Z,1.63
2022-09-03T11:38:01.581Z,1.70
2022-09-03T11:41:15.816Z,1.40
2022-09-03T11:44:17.266Z,1.80
2022-09-03T11:47:16.201Z,1.80
2022-09-03T11:50:21.168Z,1.30
2022-09-03T11:53:10.918Z,1.70
2022-09-03T11:56:00.801Z,1.60
2022-09-03T11:59:19.691Z,1.60
2022-09-03T12:02:23.589Z,1.47
2022-09-03T12:05:54.129Z,1.80
2022-09-03T12:08:52.937Z,1.77
2022-09-03T12:12:14.014Z,1.90
2022-09-03T12:15:05.938Z,1.70
2022-09-03T12:18:16.575Z,1.40
2022-09-03T12:21:05.944Z,1.60
2022-09-03T12:23:58.497Z,1.83
2022-09-03T12:26:44.240Z,1.88
2022-09-03T12:29:31.739Z,2.57
2022-09-03T12:32:18.669Z,1.90
2022-09-03T12:38:29.467Z,2.10
2022-09-03T12:42:01.638Z,2.00
2022-09-03T12:44:47.250Z,1.97
2022-09-03T12:47:39.209Z,1.97
2022-09-03T12:50:25.681Z,1.73
2022-09-03T12:53:14.540Z,1.80
2022-09-03T12:56:02.087Z,1.63
2022-09-03T12:58:56.673Z,1.90
2022-09-03T13:01:49.499Z,1.63
2022-09-03T13:04:37.799Z,1.83
2022-09-03T13:07:23.624Z,2.40
2022-09-03T13:10:24.153Z,2.00
2022-09-03T13:13:37.113Z,2.10
2022-09-03T13:16:49.019Z,2.20
2022-09-03T13:19:34.498Z,2.20
2022-09-03T13:22:22.739Z,2.00
2022-09-03T13:25:30.548Z,2.23
2022-09-03T13:28:23.916Z,1.90
2022-09-03T13:31:41.367Z,1.90
2022-09-03T13:34:35.536Z,1.93
2022-09-03T13:37:58.219Z,2.10
2022-09-03T13:40:48.694Z,2.10
2022-09-03T13:44:03.100Z,2.17
2022-09-03T13:46:54.923Z,2.13
2022-09-03T13:50:10.307Z,1.80
2022-09-03T13:53:08.314Z,2.13
2022-09-03T13:55:57.963Z,2.07
2022-09-03T13:58:50.916Z,1.90
2022-09-03T14:02:02.244Z,1.92
2022-09-03T14:05:18.705Z,2.00
2022-09-03T14:08:26.259Z,1.70
2022-09-03T14:11:29.023Z,2.10
2022-09-03T14:14:17.566Z,1.85
2022-09-03T14:17:08.787Z,1.97
2022-09-03T14:20:07.189Z,2.40
2022-09-03T14:23:03.245Z,2.63
2022-09-03T14:25:55.901Z,3.27
2022-09-03T14:28:50.141Z,3.25
2022-09-03T14:32:09.808Z,3.70
2022-09-03T14:35:23.205Z,3.13
2022-09-03T14:38:59.261Z,3.00
2022-09-03T14:41:47.696Z,2.97
2022-09-03T14:44:36.151Z,2.90
2022-09-03T14:47:43.016Z,3.50
2022-09-03T14:50:46.293Z,3.13
2022-09-03T14:53:37.877Z,2.55
2022-09-03T14:56:44.462Z,2.60
2022-09-03T14:59:50.391Z,2.90
2022-09-03T15:02:48.369Z,2.50
2022-09-03T15:06:00.374Z,2.53
2022-09-03T15:09:28.890Z,2.30
2022-09-03T15:12:14.344Z,3.30
2022-09-03T15:15:05.227Z,3.40
2022-09-03T15:18:00.231Z,4.30
2022-09-03T15:20:50.895Z,4.47
2022-09-03T15:24:01.035Z,6.17
2022-09-03T15:27:20.706Z,7.20
2022-09-03T15:30:10.101Z,7.60
2022-09-03T15:32:55.337Z,9.50
2022-09-03T15:35:52.653Z,10.13
2022-09-03T15:38:47.805Z,10.73
2022-09-03T15:41:57.434Z,9.07
2022-09-03T15:44:54.098Z,7.43
2022-09-03T15:47:52.064Z,6.53
2022-09-03T15:50:53.151Z,5.90
2022-09-03T15:54:04.989Z,5.37
2022-09-03T15:56:59.807Z,4.60
2022-09-03T15:59:45.501Z,4.33
2022-09-03T16:02:44.566Z,3.70
2022-09-03T16:06:08.150Z,3.30
2022-09-03T16:09:07.284Z,3.00
2022-09-03T16:12:27.852Z,3.20
2022-09-03T16:15:23.392Z,2.90
2022-09-03T16:18:36.920Z,2.50
2022-09-03T16:21:44.422Z,2.63
2022-09-03T16:24:43.441Z,2.40
2022-09-03T16:27:46.536Z,2.30
2022-09-03T16:30:37.734Z,2.30
2022-09-03T16:33:42.010Z,2.33
2022-09-03T16:36:27.492Z,2.10
2022-09-03T16:39:37.466Z,2.33
2022-09-03T16:42:27.242Z,2.10
2022-09-03T16:45:35.628Z,2.40
2022-09-03T16:48:20.720Z,2.33
2022-09-03T16:52:05.641Z,2.20
2022-09-03T16:55:31.877Z,2.07
2022-09-03T16:58:30.979Z,2.23
2022-09-03T17:01:42.508Z,2.00
2022-09-03T17:04:59.035Z,2.50
2022-09-03T17:08:01.385Z,2.23
2022-09-03T17:11:00.391Z,2.07
2022-09-03T17:13:56.256Z,2.07
2022-09-03T17:17:19.662Z,2.30
2022-09-03T17:20:49.370Z,1.90
2022-09-03T17:23:59.811Z,1.90
2022-09-03T17:27:04.381Z,2.03
2022-09-03T17:30:05.936Z,2.20
2022-09-03T17:33:07.355Z,2.13
2022-09-03T17:36:07.105Z,2.40
2022-09-03T17:38:52.552Z,2.70
2022-09-03T17:41:54.780Z,3.13
2022-09-03T17:44:47.086Z,3.77
2022-09-03T17:47:50.740Z,4.80
2022-09-03T17:50:50.769Z,4.22
2022-09-03T17:54:03.975Z,4.30
2022-09-03T17:57:05.592Z,4.72
2022-09-03T18:00:00.070Z,4.53
2022-09-03T18:02:55.006Z,5.70
2022-09-03T18:05:50.612Z,5.47
2022-09-03T18:09:01.702Z,6.27
2022-09-03T18:11:49.770Z,5.10
2022-09-03T18:14:55.934Z,5.53
2022-09-03T18:17:53.246Z,5.83
2022-09-03T18:21:29.257Z,5.43
2022-09-03T18:24:51.175Z,5.10
2022-09-03T18:27:59.342Z,5.67
2022-09-03T18:31:04.243Z,6.73
2022-09-03T18:34:08.258Z,9.03
2022-09-03T18:37:16.401Z,10.33
2022-09-03T18:40:20.272Z,13.40
2022-09-03T18:43:42.073Z,13.60
2022-09-03T18:48:01.829Z,13.87
2022-09-03T18:50:55.685Z,12.10
2022-09-03T18:57:13.439Z,11.20
2022-09-03T19:00:29.142Z,11.10
2022-09-03T19:03:54.185Z,10.77
2022-09-03T19:07:40.064Z,10.30
2022-09-03T19:10:52.723Z,11.80
2022-09-03T19:13:59.282Z,10.50
2022-09-03T19:17:28.240Z,10.60
2022-09-03T19:20:50.314Z,8.83
2022-09-03T19:23:54.372Z,9.30
2022-09-03T19:27:46.076Z,9.20
2022-09-03T19:30:50.726Z,8.47
2022-09-03T19:34:16.662Z,9.37
2022-09-03T19:37:32.246Z,8.80
2022-09-03T19:40:50.442Z,8.30
2022-09-03T19:44:30.494Z,8.03
2022-09-03T19:48:02.456Z,8.47
2022-09-03T19:51:26.964Z,7.57
2022-09-03T19:54:30.616Z,8.05
2022-09-03T20:00:40.610Z,7.63
2022-09-03T20:03:45.429Z,7.63
2022-09-03T20:06:52.895Z,7.03
2022-09-03T20:10:00.775Z,7.30
2022-09-03T20:12:56.137Z,6.87
2022-09-03T20:16:00.365Z,6.90
2022-09-03T20:19:18.284Z,6.93
2022-09-03T20:22:32.594Z,6.53
2022-09-03T20:25:26.813Z,6.53
2022-09-03T20:28:28.623Z,6.87
2022-09-03T20:31:27.325Z,6.53
2022-09-03T20:34:34.915Z,6.73
2022-09-03T20:37:41.644Z,6.47
2022-09-03T20:40:41.909Z,6.40
2022-09-03T20:43:49.531Z,6.20
2022-09-03T20:46:45.484Z,6.53
2022-09-03T20:49:38.198Z,5.90
2022-09-03T20:52:46.634Z,5.90
2022-09-03T20:55:42.956Z,5.90
2022-09-03T20:59:01.601Z,5.50
2022-09-03T21:02:01.499Z,6.10
2022-09-03T21:05:09.339Z,5.60
2022-09-03T21:08:33.513Z,6.10
2022-09-03T21:14:18.745Z,5.72
2022-09-03T21:17:10.099Z,5.10
2022-09-03T21:20:24.869Z,5.30
2022-09-03T21:23:31.479Z,5.60
2022-09-03T21:26:16.934Z,5.10
2022-09-03T21:29:25.569Z,4.90
2022-09-03T21:32:25.063Z,5.50
2022-09-03T21:35:19.733Z,5.33
2022-09-03T21:38:14.123Z,5.40
2022-09-03T21:41:15.186Z,5.30
2022-09-03T21:44:05.517Z,5.43
2022-09-03T21:47:02.113Z,5.03
2022-09-03T21:50:00.564Z,5.43
2022-09-03T21:52:54.701Z,5.10
2022-09-03T21:56:13.757Z,5.40
2022-09-03T21:59:19.717Z,5.07
2022-09-03T22:02:25.619Z,4.97
2022-09-03T22:05:10.946Z,5.00
2022-09-03T22:08:22.547Z,5.50
2022-09-03T22:11:15.727Z,5.17
2022-09-03T22:14:10.260Z,5.40
2022-09-03T22:17:03.974Z,5.10
2022-09-03T22:19:50.321Z,5.20
2022-09-03T22:22:43.900Z,5.03
2022-09-03T22:25:52.496Z,5.15
2022-09-03T22:29:07.933Z,5.10
2022-09-03T22:32:04.035Z,5.17
2022-09-03T22:34:55.286Z,5.10
2022-09-03T22:37:57.252Z,5.03
2022-09-03T22:41:12.127Z,4.80
2022-09-03T22:44:09.290Z,4.90
2022-09-03T22:47:29.778Z,5.20
2022-09-03T22:50:24.819Z,5.03
2022-09-03T22:53:28.746Z,4.37
2022-09-03T22:56:22.128Z,4.77
2022-09-03T22:59:15.722Z,5.10
2022-09-03T23:02:22.336Z,5.00
2022-09-03T23:05:16.303Z,4.90
2022-09-03T23:08:10.644Z,5.20
2022-09-03T23:11:25.261Z,4.83
2022-09-03T23:20:26.415Z,5.00
2022-09-03T23:23:22.176Z,5.40
2022-09-03T23:26:15.280Z,5.73
2022-09-03T23:29:40.746Z,5.13
2022-09-03T23:32:33.117Z,5.00
2022-09-03T23:35:19.527Z,5.28
2022-09-03T23:38:29.144Z,5.03
2022-09-03T23:41:25.968Z,4.93
2022-09-03T23:44:23.838Z,5.10
2022-09-03T23:47:54.624Z,4.50
2022-09-03T23:51:07.224Z,4.60
2022-09-03T23:54:11.034Z,4.63
2022-09-03T23:57:15.439Z,4.73
